Wetterdaten: Woche 26.03.12 - 01.04.12 (KW13)
Datum Zeit Temp. Innen Temp. Aussen UV X Diff Temp. Feuchte Inne Feuchte Auss Sonnenschein Luftdruck Regen ab 0,1 Wind Sonnenschein T Regendauer Windben
26.03.2012 00:00 19,0 C 7,7 C 0,0 UV-I 0,0 C 48 % 76 % 0 % 1035,5 hPa 0,0 l/m 0,0 km/h (0 Bft) 0,00 h 0,00 h 0,0 km/h (0 Bft)
26.03.2012 01:00 18,7 C 6,9 C 0,0 UV-I 0,0 C 48 % 80 % 0 % 1035,7 hPa 0,0 l/m 0,0 km/h (0 Bft) 0,00 h 0,00 h 0,0 km/h (0 Bft)
26.03.2012 02:00 18,5 C 6,2 C 0,0 UV-I 0,0 C 48 % 83 % 0 % 1036,1 hPa 0,0 l/m 0,0 km/h (0 Bft) 0,00 h 0,00 h 0,0 km/h (0 Bft)
26.03.2012 03:00 18,3 C 5,5 C 0,0 UV-I 0,0 C 48 % 85 % 0 % 1035,8 hPa 0,0 l/m 0,0 km/h (0 Bft) 0,00 h 0,00 h 0,0 km/h (0 Bft)
26.03.2012 04:00 18,1 C 5,0 C 0,0 UV-I 0,0 C 48 % 86 % 0 % 1035,7 hPa 0,0 l/m 0,0 km/h (0 Bft) 0,00 h 0,00 h 0,0 km/h (0 Bft)
26.03.2012 05:00 17,8 C 4,7 C 0,0 UV-I 0,0 C 49 % 88 % 0 % 1035,7 hPa 0,0 l/m 0,0 km/h (0 Bft) 0,00 h 0,00 h 0,0 km/h (0 Bft)
26.03.2012 06:00 17,6 C 4,4 C 0,0 UV-I 0,0 C 49 % 89 % 0 % 1035,4 hPa 0,0 l/m 0,2 km/h (0 Bft) 0,00 h 0,00 h 0,2 km/h (0 Bft)
26.03.2012 07:00 17,4 C 4,2 C 0,0 UV-I 0,0 C 48 % 89 % 0 % 1035,4 hPa 0,0 l/m 0,9 km/h (0 Bft) 0,00 h 0,00 h 1,0 km/h (0 Bft)
26.03.2012 08:00 17,1 C 4,9 C 0,0 UV-I 0,4 C 48 % 89 % 11 % 1035,9 hPa 0,0 l/m 3,7 km/h (1 Bft) 0,10 h 0,00 h 5,8 km/h (1 Bft)
26.03.2012 09:00 17,2 C 6,9 C 0,2 UV-I 6,7 C 49 % 85 % 100 % 1036,4 hPa 0,0 l/m 6,3 km/h (2 Bft) 1,00 h 0,00 h 7,7 km/h (2 Bft)
26.03.2012 10:00 17,4 C 9,0 C 1,3 UV-I 8,2 C 50 % 78 % 100 % 1036,8 hPa 0,0 l/m 5,6 km/h (1 Bft) 1,00 h 0,00 h 8,2 km/h (2 Bft)
26.03.2012 11:00 17,6 C 11,6 C 3,6 UV-I 8,0 C 50 % 69 % 100 % 1037,1 hPa 0,0 l/m 6,7 km/h (2 Bft) 1,00 h 0,00 h 9,8 km/h (2 Bft)
26.03.2012 12:00 17,9 C 14,3 C 3,9 UV-I 6,3 C 50 % 56 % 100 % 1037,2 hPa 0,0 l/m 10,9 km/h (2 Bft) 1,00 h 0,00 h 13,1 km/h (3 Bft)
26.03.2012 13:00 18,7 C 16,7 C 4,4 UV-I 6,0 C 49 % 46 % 100 % 1037,4 hPa 0,0 l/m 11,1 km/h (2 Bft) 1,00 h 0,00 h 14,8 km/h (3 Bft)
26.03.2012 14:00 20,6 C 17,6 C 4,2 UV-I 5,5 C 46 % 45 % 100 % 1039,8 hPa 0,0 l/m 13,1 km/h (3 Bft) 1,00 h 0,00 h 17,7 km/h (3 Bft)
26.03.2012 15:00 22,5 C 18,2 C 4,1 UV-I 4,7 C 45 % 42 % 100 % 1039,3 hPa 0,0 l/m 15,7 km/h (3 Bft) 1,00 h 0,00 h 18,8 km/h (3 Bft)
26.03.2012 16:00 23,7 C 18,2 C 3,8 UV-I 4,0 C 41 % 43 % 100 % 1039,5 hPa 0,0 l/m 17,7 km/h (3 Bft) 1,00 h 0,00 h 23,6 km/h (4 Bft)
26.03.2012 17:00 23,9 C 18,4 C 1,8 UV-I 3,7 C 38 % 42 % 100 % 1038,8 hPa 0,0 l/m 14,1 km/h (3 Bft) 1,00 h 0,00 h 16,2 km/h (3 Bft)
26.03.2012 18:00 22,9 C 17,7 C 0,4 UV-I 1,7 C 39 % 43 % 49 % 1036,9 hPa 0,0 l/m 13,0 km/h (3 Bft) 0,50 h 0,00 h 15,8 km/h (3 Bft)
26.03.2012 19:00 21,9 C 16,1 C 0,0 UV-I 0,1 C 41 % 52 % 4 % 1036,4 hPa 0,0 l/m 10,6 km/h (2 Bft) 0,00 h 0,00 h 11,8 km/h (2 Bft)
26.03.2012 20:00 20,8 C 14,3 C 0,0 UV-I 0,0 C 43 % 61 % 0 % 1036,2 hPa 0,0 l/m 9,3 km/h (2 Bft) 0,00 h 0,00 h 11,1 km/h (2 Bft)
26.03.2012 21:00 20,1 C 13,2 C 0,0 UV-I 0,0 C 45 % 66 % 0 % 1036,4 hPa 0,0 l/m 8,1 km/h (2 Bft) 0,00 h 0,00 h 9,4 km/h (2 Bft)
26.03.2012 22:00 19,6 C 12,3 C 0,0 UV-I 0,0 C 47 % 69 % 0 % 1036,4 hPa 0,0 l/m 8,5 km/h (2 Bft) 0,00 h 0,00 h 9,6 km/h (2 Bft)
26.03.2012 23:00 19,3 C 11,3 C 0,0 UV-I 0,0 C 48 % 72 % 0 % 1036,3 hPa 0,0 l/m 4,9 km/h (1 Bft) 0,00 h 0,00 h 6,1 km/h (2 Bft)
27.03.2012 00:00 19,0 C 10,4 C 0,0 UV-I 0,0 C 49 % 75 % 0 % 1036,6 hPa 0,0 l/m 2,8 km/h (1 Bft) 0,00 h 0,00 h 3,8 km/h (1 Bft)
27.03.2012 01:00 18,8 C 8,6 C 0,0 UV-I 0,0 C 49 % 77 % 0 % 1036,8 hPa 0,0 l/m 0,0 km/h (0 Bft) 0,00 h 0,00 h 0,0 km/h (0 Bft)
27.03.2012 02:00 18,6 C 6,8 C 0,0 UV-I 0,0 C 49 % 81 % 0 % 1036,0 hPa 0,0 l/m 0,0 km/h (0 Bft) 0,00 h 0,00 h 0,0 km/h (0 Bft)
27.03.2012 03:00 18,4 C 5,7 C 0,0 UV-I 0,0 C 49 % 84 % 0 % 1035,9 hPa 0,0 l/m 0,0 km/h (0 Bft) 0,00 h 0,00 h 0,0 km/h (0 Bft)
27.03.2012 04:00 18,1 C 5,2 C 0,0 UV-I 0,0 C 49 % 87 % 0 % 1035,6 hPa 0,0 l/m 0,0 km/h (0 Bft) 0,00 h 0,03 h 0,0 km/h (0 Bft)
27.03.2012 05:00 17,9 C 4,8 C 0,0 UV-I 0,0 C 49 % 89 % 0 % 1035,8 hPa 0,0 l/m 0,0 km/h (0 Bft) 0,00 h 0,00 h 0,0 km/h (0 Bft)
27.03.2012 06:00 17,7 C 4,3 C 0,0 UV-I 0,0 C 49 % 90 % 0 % 1035,7 hPa 0,0 l/m 0,0 km/h (0 Bft) 0,00 h 0,03 h 0,0 km/h (0 Bft)
27.03.2012 07:00 17,4 C 3,9 C 0,0 UV-I 0,0 C 49 % 90 % 0 % 1036,0 hPa 0,0 l/m 0,0 km/h (0 Bft) 0,00 h 0,00 h 0,0 km/h (0 Bft)
27.03.2012 08:00 17,2 C 4,5 C 0,0 UV-I 0,3 C 49 % 90 % 8 % 1036,4 hPa 0,0 l/m 0,0 km/h (0 Bft) 0,07 h 0,00 h 0,3 km/h (0 Bft)
27.03.2012 09:00 17,3 C 6,6 C 0,1 UV-I 6,9 C 48 % 84 % 100 % 1036,6 hPa 0,0 l/m 1,1 km/h (1 Bft) 1,00 h 0,00 h 1,3 km/h (1 Bft)
27.03.2012 10:00 17,5 C 9,4 C 1,1 UV-I 8,5 C 48 % 73 % 100 % 1036,7 hPa 0,0 l/m 3,5 km/h (1 Bft) 1,00 h 0,00 h 5,7 km/h (1 Bft)
27.03.2012 11:00 17,8 C 12,3 C 3,0 UV-I 8,6 C 49 % 68 % 100 % 1036,9 hPa 0,0 l/m 4,1 km/h (1 Bft) 1,00 h 0,00 h 6,2 km/h (2 Bft)
27.03.2012 12:00 18,2 C 14,7 C 3,3 UV-I 7,6 C 49 % 62 % 100 % 1037,1 hPa 0,0 l/m 6,7 km/h (2 Bft) 1,00 h 0,00 h 10,0 km/h (2 Bft)
27.03.2012 13:00 19,1 C 16,7 C 3,3 UV-I 6,2 C 50 % 54 % 100 % 1037,3 hPa 0,0 l/m 7,9 km/h (2 Bft) 1,00 h 0,03 h 10,4 km/h (2 Bft)
27.03.2012 14:00 20,8 C 18,2 C 3,5 UV-I 5,6 C 47 % 46 % 100 % 1039,0 hPa 0,0 l/m 11,1 km/h (2 Bft) 1,00 h 0,00 h 14,1 km/h (3 Bft)
27.03.2012 15:00 22,0 C 18,8 C 3,0 UV-I 4,6 C 44 % 47 % 100 % 1038,2 hPa 0,0 l/m 11,8 km/h (2 Bft) 1,00 h 0,00 h 15,1 km/h (3 Bft)
27.03.2012 16:00 22,6 C 18,7 C 2,2 UV-I 3,1 C 43 % 51 % 89 % 1037,6 hPa 0,0 l/m 13,5 km/h (3 Bft) 0,87 h 0,00 h 17,9 km/h (3 Bft)
27.03.2012 17:00 22,8 C 18,7 C 1,3 UV-I 2,9 C 43 % 53 % 82 % 1037,1 hPa 0,0 l/m 13,0 km/h (3 Bft) 0,43 h 0,00 h 17,9 km/h (3 Bft)
27.03.2012 18:00 22,2 C 18,3 C 0,4 UV-I 1,9 C 43 % 55 % 53 % 1035,7 hPa 0,0 l/m 11,2 km/h (2 Bft) 0,53 h 0,00 h 14,2 km/h (3 Bft)
27.03.2012 19:00 21,5 C 16,8 C 0,0 UV-I 0,0 C 44 % 61 % 1 % 1035,1 hPa 0,0 l/m 8,8 km/h (2 Bft) 0,00 h 0,00 h 9,7 km/h (2 Bft)
27.03.2012 20:00 20,7 C 15,4 C 0,0 UV-I 0,0 C 46 % 67 % 0 % 1035,0 hPa 0,0 l/m 5,6 km/h (1 Bft) 0,00 h 0,00 h 6,7 km/h (2 Bft)
27.03.2012 21:00 20,1 C 14,0 C 0,0 UV-I 0,0 C 48 % 71 % 0 % 1034,9 hPa 0,0 l/m 0,7 km/h (0 Bft) 0,00 h 0,00 h 1,1 km/h (0 Bft)
27.03.2012 22:00 19,7 C 12,8 C 0,0 UV-I 0,0 C 49 % 76 % 0 % 1035,0 hPa 0,0 l/m 1,6 km/h (1 Bft) 0,00 h 0,00 h 3,3 km/h (1 Bft)
27.03.2012 23:00 19,3 C 12,0 C 0,0 UV-I 0,0 C 50 % 79 % 0 % 1035,0 hPa 0,0 l/m 2,2 km/h (1 Bft) 0,00 h 0,00 h 2,5 km/h (1 Bft)
28.03.2012 00:00 19,1 C 10,8 C 0,0 UV-I 0,0 C 51 % 80 % 0 % 1034,9 hPa 0,0 l/m 0,8 km/h (0 Bft) 0,00 h 0,00 h 1,5 km/h (1 Bft)
28.03.2012 01:00 18,9 C 9,9 C 0,0 UV-I 0,0 C 52 % 84 % 0 % 1034,9 hPa 0,0 l/m 1,2 km/h (1 Bft) 0,00 h 0,00 h 1,7 km/h (1 Bft)
28.03.2012 02:00 18,7 C 8,8 C 0,0 UV-I 0,0 C 52 % 84 % 0 % 1034,7 hPa 0,0 l/m 0,0 km/h (0 Bft) 0,00 h 0,00 h 0,0 km/h (0 Bft)
28.03.2012 03:00 18,6 C 7,7 C 0,0 UV-I 0,0 C 51 % 87 % 0 % 1034,2 hPa 0,0 l/m 0,0 km/h (0 Bft) 0,00 h 0,00 h 0,0 km/h (0 Bft)
28.03.2012 04:00 18,4 C 6,8 C 0,0 UV-I 0,0 C 51 % 89 % 0 % 1033,8 hPa 0,0 l/m 0,0 km/h (0 Bft) 0,00 h 0,00 h 0,0 km/h (0 Bft)
28.03.2012 05:00 18,1 C 6,2 C 0,0 UV-I 0,0 C 51 % 90 % 0 % 1033,7 hPa 0,0 l/m 0,0 km/h (0 Bft) 0,00 h 0,03 h 0,0 km/h (0 Bft)
28.03.2012 06:00 17,8 C 5,7 C 0,0 UV-I 0,0 C 51 % 91 % 0 % 1033,3 hPa 0,0 l/m 0,0 km/h (0 Bft) 0,00 h 0,00 h 0,0 km/h (0 Bft)
28.03.2012 07:00 17,6 C 5,3 C 0,0 UV-I 0,0 C 51 % 92 % 0 % 1033,1 hPa 0,0 l/m 0,0 km/h (0 Bft) 0,00 h 0,00 h 0,0 km/h (0 Bft)
28.03.2012 08:00 17,5 C 5,8 C 0,0 UV-I 0,1 C 52 % 93 % 3 % 1033,2 hPa 0,0 l/m 0,0 km/h (0 Bft) 0,00 h 0,00 h 0,3 km/h (0 Bft)
28.03.2012 09:00 17,6 C 8,0 C 0,1 UV-I 5,7 C 53 % 94 % 95 % 1033,5 hPa 0,0 l/m 1,6 km/h (1 Bft) 0,93 h 0,07 h 3,7 km/h (1 Bft)
28.03.2012 10:00 17,8 C 11,0 C 1,1 UV-I 8,3 C 54 % 90 % 100 % 1033,7 hPa 0,0 l/m 3,2 km/h (1 Bft) 1,00 h 0,00 h 5,2 km/h (1 Bft)
28.03.2012 11:00 18,0 C 13,4 C 3,1 UV-I 8,4 C 54 % 79 % 100 % 1033,8 hPa 0,0 l/m 4,1 km/h (1 Bft) 1,00 h 0,00 h 7,0 km/h (2 Bft)
28.03.2012 12:00 18,4 C 15,4 C 3,3 UV-I 7,4 C 54 % 66 % 100 % 1033,6 hPa 0,0 l/m 6,1 km/h (2 Bft) 1,00 h 0,00 h 8,7 km/h (2 Bft)
28.03.2012 13:00 19,5 C 16,9 C 3,3 UV-I 6,3 C 52 % 56 % 100 % 1033,6 hPa 0,0 l/m 7,1 km/h (2 Bft) 1,00 h 0,00 h 10,3 km/h (2 Bft)
28.03.2012 14:00 21,0 C 17,9 C 3,5 UV-I 5,8 C 48 % 54 % 100 % 1034,8 hPa 0,0 l/m 9,2 km/h (2 Bft) 1,00 h 0,00 h 12,0 km/h (2 Bft)
28.03.2012 15:00 22,5 C 19,0 C 3,6 UV-I 6,2 C 45 % 55 % 100 % 1033,9 hPa 0,0 l/m 6,9 km/h (2 Bft) 1,00 h 0,00 h 9,2 km/h (2 Bft)
28.03.2012 16:00 23,8 C 19,8 C 3,2 UV-I 5,4 C 42 % 51 % 100 % 1033,7 hPa 0,0 l/m 8,4 km/h (2 Bft) 1,00 h 0,00 h 11,6 km/h (2 Bft)
28.03.2012 17:00 24,1 C 20,0 C 1,7 UV-I 3,9 C 41 % 44 % 99 % 1032,7 hPa 0,0 l/m 10,8 km/h (2 Bft) 1,00 h 0,00 h 16,3 km/h (3 Bft)
28.03.2012 18:00 23,1 C 19,5 C 0,4 UV-I 2,1 C 43 % 46 % 59 % 1030,9 hPa 0,0 l/m 8,6 km/h (2 Bft) 0,53 h 0,00 h 11,5 km/h (2 Bft)
28.03.2012 19:00 22,3 C 18,0 C 0,0 UV-I 0,2 C 44 % 53 % 4 % 1029,9 hPa 0,0 l/m 3,9 km/h (1 Bft) 0,00 h 0,00 h 5,9 km/h (2 Bft)
28.03.2012 20:00 21,4 C 15,8 C 0,0 UV-I 0,0 C 45 % 59 % 0 % 1029,2 hPa 0,0 l/m 0,5 km/h (0 Bft) 0,00 h 0,00 h 0,5 km/h (0 Bft)
28.03.2012 21:00 20,7 C 13,4 C 0,0 UV-I 0,0 C 47 % 64 % 0 % 1029,2 hPa 0,0 l/m 0,1 km/h (0 Bft) 0,00 h 0,00 h 0,0 km/h (0 Bft)
28.03.2012 22:00 20,2 C 11,8 C 0,0 UV-I 0,0 C 47 % 68 % 0 % 1029,1 hPa 0,0 l/m 0,0 km/h (0 Bft) 0,00 h 0,00 h 0,1 km/h (0 Bft)
28.03.2012 23:00 19,9 C 10,5 C 0,0 UV-I 0,0 C 48 % 70 % 0 % 1028,9 hPa 0,0 l/m 0,0 km/h (0 Bft) 0,00 h 0,00 h 0,0 km/h (0 Bft)
29.03.2012 00:00 19,4 C 9,1 C 0,0 UV-I 0,0 C 48 % 71 % 0 % 1028,5 hPa 0,0 l/m 0,0 km/h (0 Bft) 0,00 h 0,00 h 0,2 km/h (0 Bft)
29.03.2012 01:00 19,0 C 7,9 C 0,0 UV-I 0,0 C 48 % 73 % 0 % 1028,3 hPa 0,0 l/m 0,0 km/h (0 Bft) 0,00 h 0,00 h 0,0 km/h (0 Bft)
29.03.2012 02:00 18,8 C 7,0 C 0,0 UV-I 0,0 C 48 % 76 % 0 % 1027,8 hPa 0,0 l/m 0,0 km/h (0 Bft) 0,00 h 0,00 h 0,0 km/h (0 Bft)
29.03.2012 03:00 18,6 C 6,5 C 0,0 UV-I 0,0 C 47 % 78 % 0 % 1027,4 hPa 0,0 l/m 0,2 km/h (0 Bft) 0,00 h 0,00 h 0,3 km/h (0 Bft)
29.03.2012 04:00 18,4 C 6,3 C 0,0 UV-I 0,0 C 47 % 80 % 0 % 1026,7 hPa 0,0 l/m 0,1 km/h (0 Bft) 0,00 h 0,00 h 0,3 km/h (0 Bft)
29.03.2012 05:00 18,2 C 5,7 C 0,0 UV-I 0,0 C 47 % 82 % 0 % 1026,6 hPa 0,0 l/m 0,5 km/h (0 Bft) 0,00 h 0,00 h 0,9 km/h (0 Bft)
29.03.2012 06:00 18,0 C 5,6 C 0,0 UV-I 0,0 C 47 % 84 % 0 % 1026,1 hPa 0,0 l/m 0,9 km/h (0 Bft) 0,00 h 0,00 h 1,4 km/h (1 Bft)
29.03.2012 07:00 17,9 C 5,0 C 0,0 UV-I 0,0 C 47 % 86 % 0 % 1026,4 hPa 0,0 l/m 0,3 km/h (0 Bft) 0,00 h 0,00 h 0,8 km/h (0 Bft)
29.03.2012 08:00 17,7 C 5,4 C 0,0 UV-I 0,2 C 48 % 89 % 5 % 1026,2 hPa 0,0 l/m 0,6 km/h (0 Bft) 0,00 h 0,00 h 1,6 km/h (1 Bft)
29.03.2012 09:00 17,7 C 7,7 C 0,1 UV-I 4,7 C 49 % 90 % 97 % 1025,9 hPa 0,0 l/m 3,3 km/h (1 Bft) 0,97 h 0,00 h 5,1 km/h (1 Bft)
29.03.2012 10:00 17,9 C 9,9 C 0,7 UV-I 5,0 C 50 % 86 % 99 % 1026,1 hPa 0,0 l/m 9,1 km/h (2 Bft) 0,97 h 0,00 h 14,6 km/h (3 Bft)
29.03.2012 11:00 18,1 C 10,4 C 0,5 UV-I 1,5 C 51 % 83 % 44 % 1026,4 hPa 0,0 l/m 10,3 km/h (2 Bft) 0,13 h 0,00 h 13,4 km/h (3 Bft)
29.03.2012 12:00 18,4 C 11,4 C 0,8 UV-I 2,7 C 50 % 79 % 76 % 1026,0 hPa 0,0 l/m 9,1 km/h (2 Bft) 0,30 h 0,00 h 10,7 km/h (2 Bft)
29.03.2012 13:00 18,6 C 11,7 C 0,4 UV-I 1,5 C 49 % 75 % 44 % 1025,7 hPa 0,0 l/m 9,2 km/h (2 Bft) 0,00 h 0,00 h 13,5 km/h (3 Bft)
29.03.2012 14:00 18,9 C 12,6 C 1,2 UV-I 2,5 C 50 % 72 % 71 % 1025,2 hPa 0,0 l/m 12,7 km/h (3 Bft) 0,20 h 0,00 h 21,6 km/h (4 Bft)
29.03.2012 15:00 20,0 C 13,6 C 1,6 UV-I 3,3 C 47 % 66 % 85 % 1025,5 hPa 0,0 l/m 15,9 km/h (3 Bft) 0,60 h 0,00 h 22,1 km/h (4 Bft)
29.03.2012 16:00 21,1 C 13,9 C 2,1 UV-I 3,6 C 44 % 64 % 90 % 1025,9 hPa 0,0 l/m 14,8 km/h (3 Bft) 0,80 h 0,00 h 19,1 km/h (3 Bft)
29.03.2012 17:00 21,3 C 13,2 C 0,8 UV-I 2,0 C 43 % 65 % 58 % 1025,1 hPa 0,0 l/m 12,9 km/h (3 Bft) 0,00 h 0,00 h 17,4 km/h (3 Bft)
29.03.2012 18:00 20,9 C 12,9 C 0,2 UV-I 1,6 C 43 % 66 % 45 % 1023,9 hPa 0,0 l/m 10,6 km/h (2 Bft) 0,07 h 0,00 h 15,6 km/h (3 Bft)
29.03.2012 19:00 20,1 C 11,7 C 0,0 UV-I 0,1 C 44 % 69 % 2 % 1023,3 hPa 0,0 l/m 9,1 km/h (2 Bft) 0,00 h 0,00 h 12,3 km/h (3 Bft)
29.03.2012 20:00 19,3 C 10,7 C 0,0 UV-I 0,0 C 45 % 74 % 0 % 1023,4 hPa 0,0 l/m 8,4 km/h (2 Bft) 0,00 h 0,00 h 12,4 km/h (3 Bft)
29.03.2012 21:00 18,8 C 10,3 C 0,0 UV-I 0,0 C 47 % 76 % 0 % 1023,5 hPa 0,0 l/m 8,0 km/h (2 Bft) 0,00 h 0,00 h 13,3 km/h (3 Bft)
29.03.2012 22:00 18,5 C 9,7 C 0,0 UV-I 0,0 C 47 % 78 % 0 % 1023,4 hPa 0,0 l/m 7,7 km/h (2 Bft) 0,00 h 0,00 h 11,1 km/h (2 Bft)
29.03.2012 23:00 18,3 C 9,2 C 0,0 UV-I 0,0 C 48 % 81 % 0 % 1023,1 hPa 0,0 l/m 7,0 km/h (2 Bft) 0,00 h 0,00 h 9,9 km/h (2 Bft)
30.03.2012 00:00 18,1 C 9,1 C 0,0 UV-I 0,0 C 48 % 82 % 0 % 1023,0 hPa 0,0 l/m 6,6 km/h (2 Bft) 0,00 h 0,00 h 11,1 km/h (2 Bft)
30.03.2012 01:00 18,0 C 9,1 C 0,0 UV-I 0,0 C 49 % 84 % 0 % 1022,6 hPa 0,0 l/m 6,8 km/h (2 Bft) 0,00 h 0,00 h 11,3 km/h (2 Bft)
30.03.2012 02:00 17,9 C 9,1 C 0,0 UV-I 0,0 C 49 % 86 % 0 % 1022,3 hPa 0,0 l/m 6,9 km/h (2 Bft) 0,00 h 0,00 h 12,3 km/h (3 Bft)
30.03.2012 03:00 17,9 C 9,2 C 0,0 UV-I 0,0 C 50 % 86 % 0 % 1021,8 hPa 0,0 l/m 9,1 km/h (2 Bft) 0,00 h 0,00 h 12,0 km/h (2 Bft)
30.03.2012 04:00 17,8 C 9,1 C 0,0 UV-I 0,0 C 50 % 85 % 0 % 1021,4 hPa 0,0 l/m 8,4 km/h (2 Bft) 0,00 h 0,00 h 10,9 km/h (2 Bft)
30.03.2012 05:00 17,7 C 8,6 C 0,0 UV-I 0,0 C 50 % 88 % 0 % 1021,0 hPa 0,0 l/m 8,4 km/h (2 Bft) 0,00 h 0,03 h 10,5 km/h (2 Bft)
30.03.2012 06:00 17,6 C 8,0 C 0,0 UV-I 0,0 C 52 % 92 % 0 % 1021,0 hPa 0,0 l/m 6,6 km/h (2 Bft) 0,00 h 0,17 h 9,5 km/h (2 Bft)
30.03.2012 07:00 17,4 C 7,9 C 0,0 UV-I 0,0 C 52 % 94 % 0 % 1020,8 hPa 0,0 l/m 5,3 km/h (1 Bft) 0,00 h 0,03 h 8,0 km/h (2 Bft)
30.03.2012 08:00 17,2 C 8,0 C 0,0 UV-I 0,0 C 53 % 95 % 0 % 1021,3 hPa 0,1 l/m 6,2 km/h (2 Bft) 0,00 h 0,23 h 12,5 km/h (3 Bft)
30.03.2012 09:00 17,3 C 8,0 C 0,0 UV-I 0,0 C 54 % 95 % 0 % 1021,4 hPa 0,1 l/m 6,4 km/h (2 Bft) 0,00 h 0,27 h 12,1 km/h (2 Bft)
30.03.2012 10:00 17,3 C 8,1 C 0,0 UV-I 0,0 C 54 % 95 % 0 % 1021,6 hPa 0,0 l/m 5,9 km/h (2 Bft) 0,00 h 0,03 h 11,0 km/h (2 Bft)
30.03.2012 11:00 17,3 C 8,5 C 0,1 UV-I 0,6 C 54 % 95 % 18 % 1021,8 hPa 0,0 l/m 7,2 km/h (2 Bft) 0,00 h 0,00 h 10,7 km/h (2 Bft)
30.03.2012 12:00 17,4 C 9,2 C 0,1 UV-I 1,0 C 54 % 93 % 28 % 1022,1 hPa 0,0 l/m 7,7 km/h (2 Bft) 0,00 h 0,00 h 12,1 km/h (2 Bft)
30.03.2012 13:00 17,7 C 10,1 C 0,9 UV-I 2,4 C 53 % 90 % 66 % 1022,2 hPa 0,0 l/m 9,7 km/h (2 Bft) 0,27 h 0,00 h 16,2 km/h (3 Bft)
30.03.2012 14:00 18,7 C 11,5 C 1,8 UV-I 3,7 C 51 % 84 % 92 % 1022,6 hPa 0,0 l/m 9,0 km/h (2 Bft) 0,80 h 0,00 h 16,6 km/h (3 Bft)
30.03.2012 15:00 19,8 C 12,0 C 1,6 UV-I 3,5 C 48 % 79 % 90 % 1022,5 hPa 0,0 l/m 10,5 km/h (2 Bft) 0,77 h 0,00 h 18,3 km/h (3 Bft)
30.03.2012 16:00 20,2 C 12,1 C 1,5 UV-I 2,8 C 46 % 77 % 77 % 1021,9 hPa 0,0 l/m 9,2 km/h (2 Bft) 0,57 h 0,00 h 14,6 km/h (3 Bft)
30.03.2012 17:00 20,4 C 11,9 C 0,4 UV-I 1,9 C 45 % 76 % 54 % 1021,6 hPa 0,0 l/m 8,5 km/h (2 Bft) 0,10 h 0,00 h 15,8 km/h (3 Bft)
30.03.2012 18:00 19,6 C 10,9 C 0,0 UV-I 0,2 C 46 % 79 % 5 % 1020,7 hPa 0,0 l/m 7,5 km/h (2 Bft) 0,00 h 0,00 h 12,9 km/h (3 Bft)
30.03.2012 19:00 18,6 C 10,0 C 0,0 UV-I 0,0 C 48 % 81 % 0 % 1020,4 hPa 0,0 l/m 6,8 km/h (2 Bft) 0,00 h 0,00 h 11,6 km/h (2 Bft)
30.03.2012 20:00 18,0 C 9,3 C 0,0 UV-I 0,0 C 50 % 84 % 0 % 1020,4 hPa 0,0 l/m 6,4 km/h (2 Bft) 0,00 h 0,00 h 10,1 km/h (2 Bft)
30.03.2012 21:00 17,7 C 8,7 C 0,0 UV-I 0,0 C 51 % 87 % 0 % 1020,1 hPa 0,0 l/m 4,8 km/h (1 Bft) 0,00 h 0,03 h 8,5 km/h (2 Bft)
30.03.2012 22:00 17,6 C 8,4 C 0,0 UV-I 0,0 C 51 % 89 % 0 % 1019,8 hPa 0,0 l/m 3,9 km/h (1 Bft) 0,00 h 0,03 h 8,3 km/h (2 Bft)
30.03.2012 23:00 17,4 C 7,9 C 0,0 UV-I 0,0 C 52 % 90 % 0 % 1019,5 hPa 0,0 l/m 3,9 km/h (1 Bft) 0,00 h 0,13 h 8,4 km/h (2 Bft)
31.03.2012 00:00 17,3 C 7,7 C 0,0 UV-I 0,0 C 53 % 91 % 0 % 1018,9 hPa 0,0 l/m 4,3 km/h (1 Bft) 0,00 h 0,13 h 10,8 km/h (2 Bft)
31.03.2012 01:00 17,2 C 7,5 C 0,0 UV-I 0,0 C 53 % 92 % 0 % 1018,0 hPa 0,0 l/m 2,9 km/h (1 Bft) 0,00 h 0,03 h 5,8 km/h (2 Bft)
31.03.2012 02:00 17,1 C 7,3 C 0,0 UV-I 0,0 C 52 % 93 % 0 % 1017,4 hPa 0,0 l/m 4,4 km/h (1 Bft) 0,00 h 0,00 h 9,0 km/h (2 Bft)
31.03.2012 03:00 17,0 C 7,4 C 0,0 UV-I 0,0 C 52 % 93 % 0 % 1016,7 hPa 0,0 l/m 4,4 km/h (1 Bft) 0,00 h 0,00 h 9,4 km/h (2 Bft)
31.03.2012 04:00 16,9 C 7,5 C 0,0 UV-I 0,0 C 52 % 93 % 0 % 1015,8 hPa 0,0 l/m 6,5 km/h (2 Bft) 0,00 h 0,00 h 12,4 km/h (3 Bft)
31.03.2012 05:00 16,8 C 7,6 C 0,0 UV-I 0,0 C 53 % 93 % 0 % 1015,0 hPa 0,0 l/m 6,0 km/h (2 Bft) 0,00 h 0,00 h 11,7 km/h (2 Bft)
31.03.2012 06:00 16,7 C 7,9 C 0,0 UV-I 0,0 C 53 % 93 % 0 % 1014,3 hPa 0,1 l/m 6,7 km/h (2 Bft) 0,00 h 0,00 h 14,6 km/h (3 Bft)
31.03.2012 07:00 16,7 C 8,1 C 0,0 UV-I 0,0 C 53 % 93 % 0 % 1013,9 hPa 0,0 l/m 7,4 km/h (2 Bft) 0,00 h 0,00 h 13,6 km/h (3 Bft)
31.03.2012 08:00 16,7 C 8,2 C 0,0 UV-I 0,0 C 53 % 92 % 0 % 1013,7 hPa 0,0 l/m 8,8 km/h (2 Bft) 0,00 h 0,00 h 15,0 km/h (3 Bft)
31.03.2012 09:00 16,7 C 8,4 C 0,0 UV-I 0,0 C 54 % 93 % 0 % 1013,7 hPa 0,0 l/m 7,5 km/h (2 Bft) 0,00 h 0,00 h 12,2 km/h (2 Bft)
31.03.2012 10:00 16,8 C 8,7 C 0,0 UV-I 0,1 C 54 % 92 % 3 % 1013,5 hPa 0,0 l/m 7,7 km/h (2 Bft) 0,00 h 0,00 h 14,9 km/h (3 Bft)
31.03.2012 11:00 16,9 C 8,7 C 0,1 UV-I 0,4 C 54 % 87 % 11 % 1013,9 hPa 0,0 l/m 10,7 km/h (2 Bft) 0,00 h 0,00 h 20,1 km/h (4 Bft)
31.03.2012 12:00 17,1 C 9,7 C 0,2 UV-I 2,0 C 53 % 78 % 57 % 1014,2 hPa 0,0 l/m 9,9 km/h (2 Bft) 0,10 h 0,00 h 15,0 km/h (3 Bft)
31.03.2012 13:00 17,3 C 9,6 C 0,0 UV-I 0,5 C 51 % 77 % 13 % 1014,4 hPa 0,0 l/m 12,0 km/h (2 Bft) 0,00 h 0,03 h 21,0 km/h (4 Bft)
31.03.2012 14:00 17,3 C 9,2 C 0,3 UV-I 0,9 C 52 % 75 % 27 % 1014,6 hPa 0,0 l/m 13,8 km/h (3 Bft) 0,00 h 0,00 h 23,3 km/h (4 Bft)
31.03.2012 15:00 17,7 C 9,0 C 0,2 UV-I 0,5 C 50 % 69 % 13 % 1015,4 hPa 0,0 l/m 19,5 km/h (3 Bft) 0,00 h 0,00 h 28,9 km/h (5 Bft)
31.03.2012 16:00 17,8 C 8,8 C 0,3 UV-I 0,7 C 49 % 65 % 19 % 1015,7 hPa 0,0 l/m 19,8 km/h (3 Bft) 0,03 h 0,00 h 30,0 km/h (5 Bft)
31.03.2012 17:00 17,9 C 8,7 C 0,1 UV-I 0,0 C 46 % 57 % 0 % 1015,8 hPa 0,0 l/m 23,1 km/h (4 Bft) 0,00 h 0,00 h 36,5 km/h (5 Bft)
31.03.2012 18:00 17,5 C 8,2 C 0,0 UV-I 0,0 C 45 % 59 % 0 % 1015,9 hPa 0,0 l/m 17,7 km/h (3 Bft) 0,00 h 0,00 h 24,0 km/h (4 Bft)
31.03.2012 19:00 17,2 C 7,5 C 0,0 UV-I 0,0 C 45 % 58 % 0 % 1016,3 hPa 0,0 l/m 15,3 km/h (3 Bft) 0,00 h 0,00 h 22,4 km/h (4 Bft)
31.03.2012 20:00 16,8 C 6,2 C 0,0 UV-I 0,0 C 45 % 63 % 0 % 1016,9 hPa 0,0 l/m 6,6 km/h (2 Bft) 0,00 h 0,00 h 8,9 km/h (2 Bft)
31.03.2012 21:00 16,6 C 5,8 C 0,0 UV-I 0,0 C 46 % 67 % 0 % 1017,7 hPa 0,0 l/m 7,7 km/h (2 Bft) 0,00 h 0,00 h 12,4 km/h (3 Bft)
31.03.2012 22:00 16,4 C 4,9 C 0,0 UV-I 0,0 C 46 % 70 % 0 % 1018,4 hPa 0,0 l/m 6,2 km/h (2 Bft) 0,00 h 0,00 h 7,8 km/h (2 Bft)
31.03.2012 23:00 16,2 C 3,6 C 0,0 UV-I 0,0 C 46 % 74 % 0 % 1019,1 hPa 0,0 l/m 0,7 km/h (0 Bft) 0,00 h 0,00 h 1,8 km/h (1 Bft)
01.04.2012 00:00 16,0 C 2,8 C 0,0 UV-I 0,0 C 46 % 78 % 0 % 1019,3 hPa 0,0 l/m 1,3 km/h (1 Bft) 0,00 h 0,00 h 3,6 km/h (1 Bft)
01.04.2012 01:00 15,8 C 1,8 C 0,0 UV-I 0,0 C 46 % 80 % 0 % 1019,8 hPa 0,0 l/m 0,1 km/h (0 Bft) 0,00 h 0,00 h 0,0 km/h (0 Bft)
01.04.2012 02:00 15,6 C 0,6 C 0,0 UV-I 0,0 C 45 % 83 % 0 % 1019,9 hPa 0,0 l/m 0,0 km/h (0 Bft) 0,00 h 0,03 h 0,0 km/h (0 Bft)
01.04.2012 03:00 15,4 C -0,2 C 0,0 UV-I 0,0 C 45 % 85 % 0 % 1019,9 hPa 0,0 l/m 0,0 km/h (0 Bft) 0,00 h 0,03 h 0,0 km/h (0 Bft)
01.04.2012 04:00 15,2 C -0,6 C 0,0 UV-I 0,0 C 45 % 87 % 0 % 1020,0 hPa 0,0 l/m 0,0 km/h (0 Bft) 0,00 h 0,03 h 0,0 km/h (0 Bft)
01.04.2012 05:00 15,0 C -0,9 C 0,0 UV-I 0,0 C 45 % 89 % 0 % 1019,9 hPa 0,0 l/m 0,0 km/h (0 Bft) 0,00 h 0,03 h 0,0 km/h (0 Bft)
01.04.2012 06:00 14,8 C -0,9 C 0,0 UV-I 0,0 C 45 % 90 % 0 % 1019,8 hPa 0,0 l/m 0,0 km/h (0 Bft) 0,00 h 0,00 h 0,0 km/h (0 Bft)
01.04.2012 07:00 14,7 C -0,9 C 0,0 UV-I 0,0 C 45 % 91 % 0 % 1020,0 hPa 0,0 l/m 0,0 km/h (0 Bft) 0,00 h 0,00 h 0,0 km/h (0 Bft)
01.04.2012 08:00 14,6 C -0,1 C 0,0 UV-I 0,3 C 45 % 92 % 9 % 1020,1 hPa 0,0 l/m 0,2 km/h (0 Bft) 0,07 h 0,00 h 0,9 km/h (0 Bft)
01.04.2012 09:00 14,8 C 2,8 C 0,2 UV-I 8,7 C 46 % 91 % 100 % 1020,4 hPa 0,0 l/m 1,4 km/h (1 Bft) 1,00 h 0,00 h 4,0 km/h (1 Bft)
01.04.2012 10:00 14,8 C 5,9 C 1,6 UV-I 9,4 C 45 % 81 % 100 % 1020,3 hPa 0,0 l/m 3,0 km/h (1 Bft) 1,00 h 0,00 h 8,0 km/h (2 Bft)
01.04.2012 11:00 15,2 C 7,4 C 3,3 UV-I 7,8 C 45 % 71 % 100 % 1020,1 hPa 0,0 l/m 5,5 km/h (1 Bft) 1,00 h 0,00 h 10,2 km/h (2 Bft)
01.04.2012 12:00 15,5 C 8,2 C 2,6 UV-I 6,3 C 45 % 64 % 100 % 1019,8 hPa 0,0 l/m 6,7 km/h (2 Bft) 1,00 h 0,00 h 12,4 km/h (3 Bft)
01.04.2012 13:00 16,0 C 8,7 C 1,3 UV-I 3,7 C 44 % 61 % 95 % 1019,7 hPa 0,0 l/m 6,5 km/h (2 Bft) 1,00 h 0,00 h 12,8 km/h (3 Bft)
01.04.2012 14:00 16,5 C 9,5 C 2,1 UV-I 4,0 C 42 % 58 % 83 % 1019,3 hPa 0,0 l/m 8,5 km/h (2 Bft) 0,50 h 0,00 h 15,2 km/h (3 Bft)
01.04.2012 15:00 18,4 C 11,0 C 3,1 UV-I 5,7 C 38 % 54 % 100 % 1019,8 hPa 0,0 l/m 8,8 km/h (2 Bft) 1,00 h 0,00 h 16,5 km/h (3 Bft)
01.04.2012 16:00 19,5 C 10,9 C 1,7 UV-I 3,7 C 36 % 53 % 92 % 1019,8 hPa 0,0 l/m 7,8 km/h (2 Bft) 0,77 h 0,00 h 13,5 km/h (3 Bft)
01.04.2012 17:00 19,5 C 11,2 C 1,0 UV-I 3,5 C 36 % 53 % 94 % 1018,6 hPa 0,0 l/m 8,6 km/h (2 Bft) 0,93 h 0,00 h 17,0 km/h (3 Bft)
01.04.2012 18:00 18,9 C 10,7 C 0,2 UV-I 1,6 C 37 % 56 % 45 % 1017,1 hPa 0,0 l/m 7,7 km/h (2 Bft) 0,13 h 0,00 h 13,3 km/h (3 Bft)
01.04.2012 19:00 18,1 C 10,0 C 0,0 UV-I 0,4 C 38 % 57 % 10 % 1016,1 hPa 0,0 l/m 3,9 km/h (1 Bft) 0,10 h 0,00 h 8,5 km/h (2 Bft)
01.04.2012 20:00 17,0 C 8,2 C 0,0 UV-I 0,0 C 40 % 63 % 0 % 1015,4 hPa 0,0 l/m 0,5 km/h (0 Bft) 0,00 h 0,00 h 1,3 km/h (1 Bft)
01.04.2012 21:00 16,4 C 6,9 C 0,0 UV-I 0,0 C 42 % 67 % 0 % 1015,4 hPa 0,0 l/m 1,2 km/h (1 Bft) 0,00 h 0,00 h 3,3 km/h (1 Bft)
01.04.2012 22:00 16,0 C 6,1 C 0,0 UV-I 0,0 C 43 % 72 % 0 % 1015,8 hPa 0,0 l/m 1,8 km/h (1 Bft) 0,00 h 0,00 h 4,1 km/h (1 Bft)
01.04.2012 23:00 15,8 C 5,1 C 0,0 UV-I 0,0 C 43 % 75 % 0 % 1015,3 hPa 0,0 l/m 0,1 km/h (0 Bft) 0,00 h 0,00 h 0,2 km/h (0 Bft)
Min-Datum _ 01.04.12 01.04.12 26.03.12 26.03.12 01.04.12 26.03.12 26.03.12 31.03.12 - 26.03.12 - - 26.03.12
_ Min-Zeit 07:30 05:42 00:00 00:00 15:58 17:46 00:00 10:06 - 00:00 - - 00:00
Minimum _ 14,6 C -1,0 C 0,0 UV-I 0,0 C 36 % 39 % 0 % 1013,3 hPa - 0,0 km/h (0 Bft) - - 0,0 km/h (0 Bft)
Max-Datum _ 28.03.12 28.03.12 26.03.12 01.04.12 28.03.12 28.03.12 26.03.12 26.03.12 30.03.12 31.03.12 26.03.12 27.03.12 31.03.12
_ Max-Zeit 17:02 16:30 12:00 10:30 10:10 09:16 08:58 14:26 08:52 17:08 08:54 04:36 17:12
Maximum _ 24,2 C 20,1 C 4,7 UV-I 10,0 C 54 % 95 % 100 % 1040,7 hPa 0,1 l/m 26,9 km/h
W (4 Bft)
0,03 h 0,03 h 62,6 km/h
W (8 Bft)
Durchschnitt _ 18,4 C 9,5 C 0,6 UV-I 1,6 C 48 % 75 % 30 % 1026,8 hPa #0,4 l/m 5,7 km/h (1 Bft) #43:08 h #1:32 h 8,8 km/h (2 Bft)
© 2012 W. Hausmann